Radyr, United Kingdom
Current Conditions -  °F | °C
As of 4:20 PM on Monday 22 Dec 2014 (Local Time) from EGFF Reporting Station
Overcast Overcast  
Wind Chill: 52°   Ceiling: 4100
Heat Index: 52°   Visibility: 6mi
Dew Point: 48°   Wind: 18mph
Humidity: 88%   Direction: 260°W
Pressure: 30.09"   Gusts: NA
Location:  51.52°N, 3.26°W
Report Text: EGFF 221620Z AUTO 26016KT 9999 FEW014 BKN041 OVC048 11/09 Q1019
Loading
Personal Weather Stations






























Interactive Weather Map New forecast layout! Learn more

10-Day Weather Forecast

Advertisements
Track Severe Weather on mobile